createdAt,value
2018-10-21T00:00:51.102Z,102375.87
2018-10-21T00:03:20.360Z,102377.70
2018-10-21T00:05:49.576Z,102376.62
2018-10-21T00:08:18.906Z,102376.30
2018-10-21T00:10:48.476Z,102376.55
2018-10-21T00:13:18.383Z,102389.53
2018-10-21T00:15:47.329Z,102390.51
2018-10-21T00:18:16.541Z,102387.13
2018-10-21T00:20:46.117Z,102389.95
2018-10-21T00:23:16.071Z,102381.11
2018-10-21T00:25:45.275Z,102390.80
2018-10-21T00:28:14.878Z,102388.88
2018-10-21T00:30:44.788Z,102385.95
2018-10-21T00:33:13.974Z,102392.62
2018-10-21T00:35:43.471Z,102397.62
2018-10-21T00:38:12.465Z,102394.96
2018-10-21T00:40:42.702Z,102388.55
2018-10-21T00:43:12.790Z,102390.50
2018-10-21T00:45:41.776Z,102390.86
2018-10-21T00:48:10.827Z,102388.31
2018-10-21T00:50:40.106Z,102393.81
2018-10-21T00:53:09.613Z,102391.76
2018-10-21T00:55:41.102Z,102394.06
2018-10-21T00:58:11.089Z,102379.66
2018-10-21T01:00:40.087Z,102382.32
2018-10-21T01:03:09.153Z,102384.30
2018-10-21T01:05:39.160Z,102387.94
2018-10-21T01:08:09.358Z,102386.86
2018-10-21T01:10:39.132Z,102390.86
2018-10-21T01:13:08.259Z,102394.14
2018-10-21T01:15:37.909Z,102392.73
2018-10-21T01:18:07.999Z,102395.53
2018-10-21T01:20:37.418Z,102393.84
2018-10-21T01:23:06.411Z,102389.48
2018-10-21T01:25:35.619Z,102394.33
2018-10-21T01:28:05.796Z,102391.33
2018-10-21T01:30:36.944Z,102387.95
2018-10-21T01:33:06.939Z,102388.80
2018-10-21T01:35:36.826Z,102387.22
2018-10-21T01:38:06.468Z,102382.87
2018-10-21T01:40:40.731Z,102382.87
2018-10-21T01:43:10.918Z,102381.17
2018-10-21T01:45:40.531Z,102386.43
2018-10-21T01:48:11.149Z,102382.32
2018-10-21T01:50:41.136Z,102376.66
2018-10-21T01:53:12.866Z,102378.61
2018-10-21T01:55:41.961Z,102371.94
2018-10-21T01:58:11.779Z,102374.61
2018-10-21T02:00:41.570Z,102366.73
2018-10-21T02:03:10.636Z,102368.43
2018-10-21T02:05:40.021Z,102368.20
2018-10-21T02:08:09.080Z,102368.20
2018-10-21T02:10:38.321Z,102372.84
2018-10-21T02:13:07.995Z,102369.81
2018-10-21T02:15:37.473Z,102362.91
2018-10-21T02:18:06.836Z,102359.17
2018-10-21T02:20:35.981Z,102367.32
2018-10-21T02:23:05.189Z,102367.32
2018-10-21T02:25:34.071Z,102371.93
2018-10-21T02:28:03.097Z,102369.27
2018-10-21T02:30:32.525Z,102372.90
2018-10-21T02:33:03.129Z,102377.51
2018-10-21T02:35:32.381Z,102372.46
2018-10-21T02:38:01.594Z,102375.73
2018-10-21T02:41:43.507Z,102378.57
2018-10-21T02:44:20.689Z,102380.99
2018-10-21T02:46:51.401Z,102382.81
2018-10-21T02:49:21.959Z,102384.78
2018-10-21T02:52:12.455Z,102386.36
2018-10-21T02:54:44.194Z,102390.88
2018-10-21T02:57:15.149Z,102387.49
2018-10-21T02:59:44.618Z,102392.82
2018-10-21T03:02:14.073Z,102396.45
2018-10-21T03:04:42.980Z,102393.09
2018-10-21T03:07:13.011Z,102398.06
2018-10-21T03:09:43.176Z,102398.30
2018-10-21T03:12:12.197Z,102396.85
2018-10-21T03:14:42.108Z,102395.40
2018-10-21T03:17:11.153Z,102394.67
2018-10-21T03:19:42.153Z,102394.80
2018-10-21T03:22:11.859Z,102395.08
2018-10-21T03:24:41.007Z,102396.89
2018-10-21T03:27:11.357Z,102395.80
2018-10-21T03:29:40.861Z,102398.83
2018-10-21T03:32:10.025Z,102400.64
2018-10-21T03:34:39.149Z,102397.38
2018-10-21T03:37:08.320Z,102401.16
2018-10-21T03:39:37.512Z,102402.48
2018-10-21T03:42:06.476Z,102406.97
2018-10-21T03:44:36.271Z,102411.45
2018-10-21T03:47:06.107Z,102411.20
2018-10-21T03:49:35.281Z,102418.83
2018-10-21T03:52:04.757Z,102415.84
2018-10-21T03:54:33.903Z,102417.52
2018-10-21T03:57:03.178Z,102419.34
2018-10-21T03:59:32.940Z,102424.30
2018-10-21T04:02:02.406Z,102429.38
2018-10-21T04:04:32.295Z,102421.16
2018-10-21T04:07:01.637Z,102420.45
2018-10-21T04:09:30.764Z,102422.87
2018-10-21T04:12:00.961Z,102419.84
2018-10-21T04:14:30.096Z,102420.45
2018-10-21T04:16:59.949Z,102428.80
2018-10-21T04:19:29.623Z,102426.05
2018-10-21T04:22:00.027Z,102427.98
2018-10-21T04:24:29.420Z,102423.26
2018-10-21T04:26:59.683Z,102429.80
2018-10-21T04:29:28.947Z,102423.63
2018-10-21T04:31:58.687Z,102418.66
2018-10-21T04:34:27.707Z,102425.22
2018-10-21T04:37:04.676Z,102419.90
2018-10-21T04:39:44.787Z,102420.02
2018-10-21T04:42:14.790Z,102413.98
2018-10-21T04:44:44.054Z,102417.62
2018-10-21T04:47:13.121Z,102421.25
2018-10-21T04:49:42.276Z,102418.46
2018-10-21T04:52:11.823Z,102418.34
2018-10-21T04:54:42.445Z,102422.94
2018-10-21T04:57:12.300Z,102420.88
2018-10-21T04:59:41.320Z,102424.87
2018-10-21T05:02:11.060Z,102421.14
2018-10-21T05:04:40.127Z,102414.73
2018-10-21T05:07:10.520Z,102412.55
2018-10-21T05:09:40.227Z,102413.03
2018-10-21T05:12:09.246Z,102414.48
2018-10-21T05:14:38.272Z,102423.09
2018-10-21T05:17:07.167Z,102425.27
2018-10-21T05:19:37.048Z,102422.25
2018-10-21T05:22:06.485Z,102421.40
2018-10-21T05:24:36.771Z,102422.84
2018-10-21T05:27:07.103Z,102427.07
2018-10-21T05:29:36.939Z,102422.75
2018-10-21T05:32:06.147Z,102422.98
2018-10-21T05:34:36.857Z,102417.89
2018-10-21T05:37:06.589Z,102424.91
2018-10-21T05:39:36.710Z,102425.54
2018-10-21T05:42:06.274Z,102428.06
2018-10-21T05:44:35.817Z,102432.05
2018-10-21T05:47:05.164Z,102435.08
2018-10-21T05:49:34.622Z,102435.56
2018-10-21T05:52:04.378Z,102438.82
2018-10-21T05:54:37.459Z,102434.35
2018-10-21T05:57:06.859Z,102436.16
2018-10-21T05:59:36.268Z,102433.73
2018-10-21T06:02:06.813Z,102432.15
2018-10-21T06:04:36.426Z,102435.77
2018-10-21T06:07:06.841Z,102440.13
2018-10-21T06:09:37.026Z,102439.17
2018-10-21T06:12:06.594Z,102446.78
2018-10-21T06:14:36.278Z,102447.99
2018-10-21T06:17:08.990Z,102447.99
2018-10-21T06:19:40.445Z,102449.69
2018-10-21T06:22:10.584Z,102453.93
2018-10-21T06:24:40.137Z,102457.92
2018-10-21T06:27:09.336Z,102462.76
2018-10-21T06:29:39.351Z,102464.94
2018-10-21T06:32:09.080Z,102464.59
2018-10-21T06:34:39.257Z,102478.73
2018-10-21T06:37:09.681Z,102474.75
2018-10-21T06:39:38.990Z,102479.08
2018-10-21T06:42:09.017Z,102488.75
2018-10-21T06:44:39.377Z,102482.61
2018-10-21T06:47:08.596Z,102489.00
2018-10-21T06:49:38.328Z,102499.05
2018-10-21T06:52:13.847Z,102497.71
2018-10-21T06:54:42.959Z,102491.79
2018-10-21T06:57:12.273Z,102492.49
2018-10-21T06:59:41.904Z,102490.56
2018-10-21T07:02:10.941Z,102489.12
2018-10-21T07:04:40.363Z,102490.91
2018-10-21T07:07:11.065Z,102496.12
2018-10-21T07:09:40.690Z,102498.55
2018-10-21T07:12:10.243Z,102498.77
2018-10-21T07:14:39.782Z,102501.56
2018-10-21T07:17:08.693Z,102505.29
2018-10-21T07:19:38.541Z,102497.92
2018-10-21T07:22:08.687Z,102497.80
2018-10-21T07:24:37.973Z,102507.70
2018-10-21T07:27:07.570Z,102506.13
2018-10-21T07:29:36.932Z,102501.39
2018-10-21T07:32:06.972Z,102508.02
2018-10-21T07:34:36.456Z,102507.69
2018-10-21T07:37:05.558Z,102518.90
2018-10-21T07:39:34.599Z,102529.31
2018-10-21T07:42:03.759Z,102532.92
2018-10-21T07:44:33.062Z,102532.57
2018-10-21T07:47:02.200Z,102536.70
2018-10-21T07:49:31.841Z,102529.30
2018-10-21T07:52:01.058Z,102528.58
2018-10-21T07:54:30.551Z,102532.95
2018-10-21T07:57:00.656Z,102526.75
2018-10-21T07:59:29.712Z,102531.33
2018-10-21T08:01:58.893Z,102530.58
2018-10-21T08:04:28.326Z,102531.16
2018-10-21T08:07:08.626Z,102529.68
2018-10-21T08:09:38.560Z,102530.13
2018-10-21T08:12:08.144Z,102529.98
2018-10-21T08:14:37.390Z,102532.25
2018-10-21T08:17:07.329Z,102528.73
2018-10-21T08:19:36.921Z,102533.91
2018-10-21T08:22:06.732Z,102530.27
2018-10-21T08:24:36.550Z,102528.41
2018-10-21T08:27:05.737Z,102528.61
2018-10-21T08:29:35.473Z,102519.95
2018-10-21T08:32:05.283Z,102523.66
2018-10-21T08:34:35.575Z,102518.45
2018-10-21T08:37:05.030Z,102519.61
2018-10-21T08:39:34.113Z,102522.86
2018-10-21T08:42:04.064Z,102531.07
2018-10-21T08:44:33.410Z,102534.46
2018-10-21T08:47:02.479Z,102533.20
2018-10-21T08:49:32.299Z,102534.34
2018-10-21T08:52:01.964Z,102546.38
2018-10-21T08:54:31.883Z,102545.55
2018-10-21T08:57:04.687Z,102546.12
2018-10-21T08:59:34.307Z,102543.56
2018-10-21T09:02:03.529Z,102535.30
2018-10-21T09:04:32.520Z,102535.31
2018-10-21T09:07:02.679Z,102537.23
2018-10-21T09:09:32.411Z,102537.27
2018-10-21T09:12:04.179Z,102539.94
2018-10-21T09:14:33.185Z,102538.76
2018-10-21T09:17:02.799Z,102533.44
2018-10-21T09:19:33.198Z,102536.39
2018-10-21T09:22:03.550Z,102536.28
2018-10-21T09:24:34.042Z,102542.80
2018-10-21T09:27:03.433Z,102531.97
2018-10-21T09:29:33.215Z,102531.77
2018-10-21T09:32:03.499Z,102526.28
2018-10-21T09:34:32.509Z,102530.34
2018-10-21T09:37:01.895Z,102529.23
2018-10-21T09:42:08.945Z,102528.95
2018-10-21T09:44:39.102Z,102528.16
2018-10-21T09:47:09.151Z,102523.41
2018-10-21T09:49:38.698Z,102526.84
2018-10-21T09:52:08.726Z,102518.40
2018-10-21T09:54:38.220Z,102516.86
2018-10-21T09:57:09.284Z,102518.47
2018-10-21T09:59:39.700Z,102510.52
2018-10-21T10:02:14.680Z,102504.45
2018-10-21T10:04:44.180Z,102508.58
2018-10-21T10:07:14.086Z,102514.29
2018-10-21T10:09:44.133Z,102512.71
2018-10-21T10:12:13.812Z,102504.37
2018-10-21T10:14:44.830Z,102504.34
2018-10-21T10:17:14.424Z,102499.72
2018-10-21T10:19:44.146Z,102496.77
2018-10-21T10:22:13.636Z,102497.15
2018-10-21T10:24:45.245Z,102501.31
2018-10-21T10:27:14.231Z,102498.34
2018-10-21T10:29:43.523Z,102494.79
2018-10-21T10:32:13.773Z,102491.90
2018-10-21T10:34:44.159Z,102491.52
2018-10-21T10:37:14.679Z,102483.77
2018-10-21T10:39:43.739Z,102478.27
2018-10-21T10:42:13.149Z,102474.84
2018-10-21T10:44:42.880Z,102477.73
2018-10-21T10:47:16.001Z,102474.48
2018-10-21T10:49:45.915Z,102465.17
2018-10-21T10:52:16.304Z,102468.60
2018-10-21T10:54:46.682Z,102468.42
2018-10-21T10:57:16.083Z,102459.49
2018-10-21T10:59:47.171Z,102463.75
2018-10-21T11:02:17.737Z,102461.86
2018-10-21T11:04:47.383Z,102456.09
2018-10-21T11:07:16.834Z,102457.31
2018-10-21T11:09:46.023Z,102444.66
2018-10-21T11:12:17.636Z,102450.72
2018-10-21T11:14:49.293Z,102449.38
2018-10-21T11:17:21.097Z,102443.44
2018-10-21T11:19:50.640Z,102442.33
2018-10-21T11:22:21.029Z,102436.63
2018-10-21T11:24:50.992Z,102439.36
2018-10-21T11:27:20.997Z,102435.36
2018-10-21T11:29:50.198Z,102439.03
2018-10-21T11:32:20.761Z,102442.11
2018-10-21T11:34:51.326Z,102439.30
2018-10-21T11:37:20.703Z,102437.14
2018-10-21T11:39:49.869Z,102436.49
2018-10-21T11:42:19.358Z,102434.86
2018-10-21T11:44:49.055Z,102436.55
2018-10-21T11:47:18.395Z,102433.66
2018-10-21T11:49:47.896Z,102432.33
2018-10-21T11:52:17.744Z,102421.61
2018-10-21T11:54:46.736Z,102424.98
2018-10-21T11:57:15.659Z,102424.36
2018-10-21T11:59:46.059Z,102424.91
2018-10-21T12:02:16.573Z,102424.70
2018-10-21T12:04:46.159Z,102422.72
2018-10-21T12:07:15.929Z,102420.40
2018-10-21T12:09:45.512Z,102427.10
2018-10-21T12:12:14.568Z,102421.59
2018-10-21T12:14:44.741Z,102418.06
2018-10-21T12:17:14.768Z,102420.27
2018-10-21T12:19:44.288Z,102421.66
2018-10-21T12:22:15.099Z,102421.65
2018-10-21T12:24:45.378Z,102411.91
2018-10-21T12:27:15.783Z,102410.92
2018-10-21T12:29:45.433Z,102412.75
2018-10-21T12:32:14.694Z,102406.05
2018-10-21T12:34:45.284Z,102409.72
2018-10-21T12:37:14.322Z,102412.56
2018-10-21T12:39:43.777Z,102405.51
2018-10-21T12:42:13.326Z,102410.27
2018-10-21T12:44:49.570Z,102404.91
2018-10-21T12:47:18.723Z,102404.91
2018-10-21T12:49:49.133Z,102400.54
2018-10-21T12:52:18.260Z,102399.55
2018-10-21T12:54:49.082Z,102393.69
2018-10-21T12:57:18.533Z,102396.77
2018-10-21T12:59:48.050Z,102398.66
2018-10-21T13:02:18.501Z,102390.64
2018-10-21T13:04:50.450Z,102384.97
2018-10-21T13:07:20.420Z,102388.00
2018-10-21T13:09:50.481Z,102382.63
2018-10-21T13:12:19.618Z,102380.59
2018-10-21T13:14:49.054Z,102372.05
2018-10-21T13:17:19.213Z,102374.73
2018-10-21T13:19:48.988Z,102372.20
2018-10-21T13:22:18.593Z,102377.07
2018-10-21T13:24:49.479Z,102373.70
2018-10-21T13:27:19.167Z,102371.51
2018-10-21T13:29:48.960Z,102367.83
2018-10-21T13:32:17.976Z,102364.64
2018-10-21T13:34:47.680Z,102360.09
2018-10-21T13:37:17.619Z,102361.96
2018-10-21T13:39:47.350Z,102356.59
2018-10-21T13:42:16.567Z,102348.69
2018-10-21T13:44:45.567Z,102354.06
2018-10-21T13:47:14.343Z,102351.38
2018-10-21T13:49:43.389Z,102350.72
2018-10-21T13:52:13.128Z,102356.78
2018-10-21T13:54:42.152Z,102351.07
2018-10-21T13:57:11.394Z,102346.20
2018-10-21T13:59:40.207Z,102348.39
2018-10-21T14:02:09.212Z,102344.02
2018-10-21T14:04:38.532Z,102342.17
2018-10-21T14:07:07.442Z,102335.66
2018-10-21T14:09:36.213Z,102329.59
2018-10-21T14:12:05.102Z,102328.63
2018-10-21T14:14:34.293Z,102330.68
2018-10-21T14:17:03.129Z,102327.30
2018-10-21T14:19:31.944Z,102326.31
2018-10-21T14:22:00.706Z,102330.31
2018-10-21T14:24:29.726Z,102326.25
2018-10-21T14:26:58.829Z,102323.38
2018-10-21T14:29:27.678Z,102326.26
2018-10-21T14:31:57.706Z,102329.75
2018-10-21T14:34:28.210Z,102323.51
2018-10-21T14:36:57.437Z,102328.53
2018-10-21T14:39:26.353Z,102318.14
2018-10-21T14:41:55.394Z,102322.81
2018-10-21T14:44:24.232Z,102326.50
2018-10-21T14:46:52.959Z,102317.56
2018-10-21T14:49:22.066Z,102317.72
2018-10-21T14:51:50.868Z,102320.09
2018-10-21T14:54:19.794Z,102318.91
2018-10-21T14:56:48.505Z,102316.38
2018-10-21T14:59:17.728Z,102321.44
2018-10-21T15:01:46.847Z,102316.91
2018-10-21T15:04:16.530Z,102313.20
2018-10-21T15:06:46.410Z,102310.66
2018-10-21T15:09:15.980Z,102306.48
2018-10-21T15:11:45.235Z,102312.39
2018-10-21T15:14:14.726Z,102304.19
2018-10-21T15:16:44.559Z,102306.34
2018-10-21T15:19:13.588Z,102304.11
2018-10-21T15:21:43.799Z,102301.23
2018-10-21T15:24:12.682Z,102302.22
2018-10-21T15:26:42.721Z,102296.46
2018-10-21T15:29:12.768Z,102295.58
2018-10-21T15:31:41.515Z,102301.93
2018-10-21T15:34:10.873Z,102301.42
2018-10-21T15:36:39.559Z,102297.70
2018-10-21T15:39:10.409Z,102298.00
2018-10-21T15:41:40.285Z,102296.95
2018-10-21T15:44:09.845Z,102300.27
2018-10-21T15:46:38.534Z,102295.52
2018-10-21T15:49:07.643Z,102295.16
2018-10-21T15:51:36.795Z,102298.28
2018-10-21T15:54:12.242Z,102296.72
2018-10-21T15:56:43.248Z,102290.16
2018-10-21T15:59:13.573Z,102291.45
2018-10-21T16:01:43.910Z,102289.25
2018-10-21T16:04:14.066Z,102290.56
2018-10-21T16:06:44.001Z,102291.86
2018-10-21T16:09:13.746Z,102283.45
2018-10-21T16:11:44.037Z,102294.11
2018-10-21T16:14:14.570Z,102294.44
2018-10-21T16:16:46.012Z,102291.36
2018-10-21T16:19:15.145Z,102295.34
2018-10-21T16:21:44.215Z,102296.98
2018-10-21T16:24:14.597Z,102294.27
2018-10-21T16:26:43.758Z,102302.59
2018-10-21T16:29:12.895Z,102304.75
2018-10-21T16:31:41.974Z,102293.49
2018-10-21T16:34:10.964Z,102302.69
2018-10-21T16:36:40.166Z,102309.17
2018-10-21T16:39:10.465Z,102303.97
2018-10-21T16:41:39.317Z,102302.45
2018-10-21T16:44:08.033Z,102304.08
2018-10-21T16:46:37.236Z,102310.56
2018-10-21T16:49:06.094Z,102317.58
2018-10-21T16:51:35.007Z,102311.17
2018-10-21T16:54:04.213Z,102313.64
2018-10-21T16:56:33.577Z,102314.31
2018-10-21T16:59:02.621Z,102311.92
2018-10-21T17:01:31.865Z,102311.56
2018-10-21T17:04:03.096Z,102313.22
2018-10-21T17:06:33.312Z,102315.05
2018-10-21T17:09:02.473Z,102304.11
2018-10-21T17:11:31.426Z,102315.45
2018-10-21T17:14:00.726Z,102312.42
2018-10-21T17:16:29.794Z,102319.11
2018-10-21T17:18:59.119Z,102318.05
2018-10-21T17:21:28.039Z,102314.21
2018-10-21T17:23:57.092Z,102315.20
2018-10-21T17:26:26.604Z,102319.70
2018-10-21T17:28:55.996Z,102313.66
2018-10-21T17:31:24.724Z,102317.31
2018-10-21T17:33:54.256Z,102311.29
2018-10-21T17:36:23.021Z,102312.28
2018-10-21T17:38:52.796Z,102313.61
2018-10-21T17:41:21.560Z,102314.59
2018-10-21T17:43:50.370Z,102313.27
2018-10-21T17:46:19.641Z,102304.25
2018-10-21T17:48:50.544Z,102295.53
2018-10-21T17:51:21.099Z,102304.15
2018-10-21T17:53:50.969Z,102302.81
2018-10-21T17:56:19.964Z,102300.28
2018-10-21T17:58:49.776Z,102296.09
2018-10-21T18:01:19.610Z,102298.06
2018-10-21T18:03:50.129Z,102298.20
2018-10-21T18:06:20.254Z,102295.67
2018-10-21T18:08:49.832Z,102295.48
2018-10-21T18:11:18.745Z,102296.97
2018-10-21T18:13:48.158Z,102293.94
2018-10-21T18:16:17.000Z,102296.76
2018-10-21T18:18:45.773Z,102299.60
2018-10-21T18:21:14.634Z,102295.59
2018-10-21T18:23:43.815Z,102295.23
2018-10-21T18:26:12.686Z,102294.18
2018-10-21T18:28:41.802Z,102301.50
2018-10-21T18:31:10.991Z,102299.62
2018-10-21T18:33:39.726Z,102299.28
2018-10-21T18:36:08.527Z,102304.27
2018-10-21T18:38:37.437Z,102296.39
2018-10-21T18:41:06.995Z,102301.69
2018-10-21T18:43:36.183Z,102298.17
2018-10-21T18:46:05.155Z,102298.80
2018-10-21T18:48:34.230Z,102295.64
2018-10-21T18:51:03.826Z,102288.61
2018-10-21T18:53:32.665Z,102293.28
2018-10-21T18:56:01.527Z,102294.61
2018-10-21T18:58:30.872Z,102294.61
2018-10-21T19:01:00.039Z,102291.23
2018-10-21T19:03:29.502Z,102290.88
2018-10-21T19:05:58.327Z,102290.53
2018-10-21T19:08:27.234Z,102294.67
2018-10-21T19:10:56.052Z,102292.98
2018-10-21T19:13:25.289Z,102290.84
2018-10-21T19:15:54.335Z,102290.48
2018-10-21T19:18:23.971Z,102284.78
2018-10-21T19:20:52.789Z,102284.92
2018-10-21T19:23:21.706Z,102286.26
2018-10-21T19:25:50.593Z,102284.57
2018-10-21T19:28:19.597Z,102278.69
2018-10-21T19:30:48.497Z,102284.88
2018-10-21T19:33:18.592Z,102279.10
2018-10-21T19:35:47.406Z,102281.37
2018-10-21T19:38:17.122Z,102286.58
2018-10-21T19:40:47.112Z,102289.84
2018-10-21T19:43:16.930Z,102293.31
2018-10-21T19:45:45.893Z,102290.64
2018-10-21T19:48:16.471Z,102293.27
2018-10-21T19:50:47.690Z,102288.10
2018-10-21T19:53:17.890Z,102292.24
2018-10-21T19:55:47.244Z,102296.03
2018-10-21T19:58:16.873Z,102299.70
2018-10-21T20:00:47.847Z,102294.00
2018-10-21T20:03:19.044Z,102293.23
2018-10-21T20:05:49.931Z,102293.50
2018-10-21T20:08:19.451Z,102291.48
2018-10-21T20:10:48.586Z,102294.02
2018-10-21T20:13:18.629Z,102294.91
2018-10-21T20:15:47.689Z,102290.00
2018-10-21T20:18:18.108Z,102291.95
2018-10-21T20:20:48.403Z,102291.95
2018-10-21T20:23:18.270Z,102287.89
2018-10-21T20:25:48.159Z,102286.75
2018-10-21T20:28:17.004Z,102288.09
2018-10-21T20:30:45.748Z,102287.60
2018-10-21T20:33:14.967Z,102288.41
2018-10-21T20:35:45.302Z,102287.25
2018-10-21T20:38:15.234Z,102282.34
2018-10-21T20:40:44.582Z,102279.80
2018-10-21T20:43:13.254Z,102275.02
2018-10-21T20:45:42.027Z,102275.73
2018-10-21T20:48:10.853Z,102281.95
2018-10-21T20:50:39.900Z,102284.62
2018-10-21T20:53:08.674Z,102288.55
2018-10-21T20:55:37.480Z,102288.81
2018-10-21T20:58:06.419Z,102292.30
2018-10-21T21:00:35.189Z,102289.40
2018-10-21T21:03:03.907Z,102294.50
2018-10-21T21:05:32.659Z,102295.77
2018-10-21T21:08:01.364Z,102296.03
2018-10-21T21:10:30.155Z,102298.27
2018-10-21T21:12:58.882Z,102293.55
2018-10-21T21:15:27.587Z,102293.78
2018-10-21T21:17:56.678Z,102293.35
2018-10-21T21:20:25.394Z,102299.11
2018-10-21T21:22:54.308Z,102299.24
2018-10-21T21:25:23.321Z,102294.63
2018-10-21T21:27:52.057Z,102292.51
2018-10-21T21:30:20.795Z,102287.79
2018-10-21T21:32:49.471Z,102290.45
2018-10-21T21:35:18.491Z,102294.03
2018-10-21T21:37:47.223Z,102287.39
2018-10-21T21:40:16.353Z,102292.59
2018-10-21T21:42:45.342Z,102284.59
2018-10-21T21:45:15.499Z,102283.39
2018-10-21T21:47:45.000Z,102277.31
2018-10-21T21:50:16.587Z,102274.91
2018-10-21T21:52:45.442Z,102272.23
2018-10-21T21:55:15.384Z,102276.55
2018-10-21T21:57:44.218Z,102279.22
2018-10-21T22:00:14.250Z,102279.38
2018-10-21T22:02:43.404Z,102275.27
2018-10-21T22:05:13.139Z,102274.13
2018-10-21T22:07:42.957Z,102276.53
2018-10-21T22:10:14.007Z,102279.56
2018-10-21T22:12:43.975Z,102268.61
2018-10-21T22:15:13.241Z,102260.84
2018-10-21T22:17:42.694Z,102262.55
2018-10-21T22:20:13.562Z,102264.19
2018-10-21T22:22:42.992Z,102258.93
2018-10-21T22:25:11.776Z,102267.99
2018-10-21T22:27:40.589Z,102265.69
2018-10-21T22:30:10.840Z,102262.30
2018-10-21T22:32:39.635Z,102253.34
2018-10-21T22:35:09.676Z,102250.68
2018-10-21T22:37:39.129Z,102252.62
2018-10-21T22:40:07.972Z,102257.75
2018-10-21T22:42:37.009Z,102252.27
2018-10-21T22:45:07.400Z,102241.17
2018-10-21T22:47:36.215Z,102243.22
2018-10-21T22:50:05.461Z,102247.94
2018-10-21T22:52:34.431Z,102245.59
2018-10-21T22:55:03.212Z,102245.30
2018-10-21T22:57:32.526Z,102243.23
2018-10-21T23:00:01.277Z,102239.95
2018-10-21T23:02:30.041Z,102236.83
2018-10-21T23:04:58.813Z,102235.23
2018-10-21T23:07:27.572Z,102239.31
2018-10-21T23:09:56.483Z,102239.31
2018-10-21T23:12:25.463Z,102236.16
2018-10-21T23:14:54.720Z,102238.08
2018-10-21T23:17:23.504Z,102235.41
2018-10-21T23:19:52.406Z,102238.77
2018-10-21T23:22:21.644Z,102240.88
2018-10-21T23:27:28.500Z,102238.46
2018-10-21T23:29:58.537Z,102230.45
2018-10-21T23:32:27.587Z,102232.47
2018-10-21T23:34:57.254Z,102232.09
2018-10-21T23:37:26.556Z,102228.94
2018-10-21T23:39:55.849Z,102221.73
2018-10-21T23:42:24.849Z,102221.20
2018-10-21T23:44:53.842Z,102218.12
2018-10-21T23:47:22.716Z,102222.64
2018-10-21T23:49:51.828Z,102224.12
2018-10-21T23:52:20.843Z,102213.21
2018-10-21T23:54:49.713Z,102208.30
2018-10-21T23:57:18.831Z,102207.34
2018-10-21T23:59:47.666Z,102206.36
